Air Resources Laboratory banner image
Air Resources Laboratory web site National Oceanic and Atmospheric Administration (NOAA)

ms metar


KLUL 191355Z AUTO 12004KT 10SM OVC008 19/19 A3020 RMK AO2 T01860186=
KOLV 191350Z 18012KT 10SM OVC009 16/16 A3011=